Time;durP1;ratioP1;P1;durP2;ratioP2;P2;SDS_P1;SDS_P2;PMS_P1;PMS_P2;Temp;Humidity;BMP_temperature;BMP_pressure;BME280_temperature;BME280_humidity;BME280_pressure;Samples;Min_cycle;Max_cycle;Signal;HPM_P1;HPM_P2
2022/07/08 00:00:35;;;;;;;8.18;4.30;;;;;;;19.19;63.92;99581.70;1742671;82;21084;-44
2022/07/08 00:03:03;;;;;;;9.13;5.70;;;;;;;19.19;63.97;99584.44;1742713;82;21130;-44
2022/07/08 00:05:30;;;;;;;9.00;5.08;;;;;;;19.19;63.88;99591.91;1736477;82;20993;-44
2022/07/08 00:07:57;;;;;;;7.87;5.20;;;;;;;19.17;63.98;99601.92;1712310;83;21404;-44
2022/07/08 00:10:24;;;;;;;9.88;5.62;;;;;;;19.15;63.96;99600.80;1712404;83;21543;-44
2022/07/08 00:12:52;;;;;;;21.68;7.08;;;;;;;19.17;64.08;99607.42;1712338;83;21041;-44
2022/07/08 00:15:21;;;;;;;8.05;5.55;;;;;;;19.20;64.61;99609.96;1712189;83;21216;-44
2022/07/08 00:17:48;;;;;;;7.80;4.62;;;;;;;19.23;64.44;99614.03;1712226;83;21603;-44
2022/07/08 00:20:15;;;;;;;7.72;4.92;;;;;;;19.28;64.37;99605.92;1712169;83;21033;-44
2022/07/08 00:22:43;;;;;;;8.58;5.30;;;;;;;19.31;64.38;99601.78;1712181;83;20950;-44
2022/07/08 00:25:11;;;;;;;9.33;5.80;;;;;;;19.34;64.31;99601.54;1712304;83;21108;-44
2022/07/08 00:27:39;;;;;;;9.35;6.05;;;;;;;19.37;64.34;99598.73;1712215;83;21133;-44
2022/07/08 00:30:08;;;;;;;11.48;6.83;;;;;;;19.40;64.43;99608.92;1711935;83;21536;-44
2022/07/08 00:32:37;;;;;;;12.03;7.15;;;;;;;19.46;64.46;99606.53;1706649;83;21025;-44
2022/07/08 00:35:05;;;;;;;9.48;6.17;;;;;;;19.50;64.52;99605.29;1712254;83;21029;-44
2022/07/08 00:37:32;;;;;;;10.18;5.03;;;;;;;19.54;63.69;99602.48;1712307;83;20966;-44
2022/07/08 00:39:59;;;;;;;7.03;4.03;;;;;;;19.62;63.03;99601.78;1712119;83;21141;-44
2022/07/08 00:42:26;;;;;;;5.17;4.10;;;;;;;19.69;62.41;99608.56;1712327;83;21041;-44
2022/07/08 00:44:54;;;;;;;7.75;4.58;;;;;;;19.75;62.41;99609.05;1712056;83;20981;-44
2022/07/08 00:47:21;;;;;;;6.62;4.62;;;;;;;19.81;61.89;99609.36;1711985;83;21609;-44
2022/07/08 00:49:51;;;;;;;7.33;4.92;;;;;;;19.85;61.41;99609.48;1712271;83;21045;-44
2022/07/08 00:52:19;;;;;;;7.95;4.80;;;;;;;19.89;60.90;99601.98;1712074;83;23212;-44
2022/07/08 00:54:46;;;;;;;9.38;4.65;;;;;;;19.93;60.68;99605.45;1712223;83;21025;-44
2022/07/08 00:57:13;;;;;;;8.15;4.10;;;;;;;19.95;60.50;99607.77;1712169;83;20906;-44
2022/07/08 00:59:41;;;;;;;6.33;4.20;;;;;;;19.97;60.29;99598.52;1712170;83;21105;-44
2022/07/08 01:02:09;;;;;;;5.20;3.75;;;;;;;20.00;60.10;99596.30;1712117;83;21021;-44
2022/07/08 01:04:36;;;;;;;6.00;3.75;;;;;;;20.01;60.09;99596.48;1712252;83;21190;-44
2022/07/08 01:07:03;;;;;;;4.42;3.00;;;;;;;20.04;60.21;99594.30;1712207;83;21005;-44
2022/07/08 01:09:32;;;;;;;4.75;3.42;;;;;;;20.04;59.93;99593.51;1712257;83;21059;-44
2022/07/08 01:11:59;;;;;;;5.05;3.22;;;;;;;20.06;59.76;99594.63;1712190;83;21037;-44
2022/07/08 01:14:28;;;;;;;4.30;3.02;;;;;;;20.07;59.69;99595.41;1712344;83;20946;-44
2022/07/08 01:16:55;;;;;;;7.78;3.37;;;;;;;20.07;59.48;99598.95;1661615;83;21940;-44
2022/07/08 01:19:22;;;;;;;4.33;3.33;;;;;;;20.08;59.55;99601.89;1712276;83;21061;-44
2022/07/08 01:21:50;;;;;;;5.50;3.30;;;;;;;20.07;59.49;99596.20;1712224;83;21055;-44
2022/07/08 01:24:18;;;;;;;3.90;3.35;;;;;;;20.07;59.54;99598.95;1712154;83;21584;-44
2022/07/08 01:26:45;;;;;;;5.75;3.27;;;;;;;20.08;59.92;99603.27;1712525;83;21057;-44
2022/07/08 01:29:14;;;;;;;5.67;3.10;;;;;;;20.09;59.92;99606.17;1712082;83;21528;-44
2022/07/08 01:31:41;;;;;;;4.80;2.87;;;;;;;20.12;59.96;99607.33;1712447;83;21049;-44
2022/07/08 01:34:08;;;;;;;8.13;3.12;;;;;;;20.14;60.03;99603.58;1712145;83;21038;-44
2022/07/08 01:36:35;;;;;;;3.75;2.67;;;;;;;20.17;60.48;99601.35;1712239;83;21048;-44
2022/07/08 01:39:04;;;;;;;3.45;2.80;;;;;;;20.16;60.77;99598.41;1712159;83;21109;-44
2022/07/08 01:41:32;;;;;;;3.90;2.90;;;;;;;20.16;60.77;99603.92;1712284;83;21137;-44
2022/07/08 01:43:59;;;;;;;4.85;2.90;;;;;;;20.16;61.11;99599.20;1712002;83;21492;-44
2022/07/08 01:46:26;;;;;;;3.55;2.60;;;;;;;20.15;61.02;99601.77;1712172;83;21001;-44
2022/07/08 01:48:53;;;;;;;5.22;2.70;;;;;;;20.14;61.34;99600.20;1712316;83;21036;-44
2022/07/08 01:51:20;;;;;;;5.47;2.70;;;;;;;20.15;61.44;99594.09;1712108;83;21142;-44
2022/07/08 01:53:47;;;;;;;4.30;2.60;;;;;;;20.15;61.15;99593.50;1712176;83;21223;-44
2022/07/08 01:56:14;;;;;;;5.40;2.62;;;;;;;20.14;61.12;99590.56;1712088;83;20945;-44
2022/07/08 01:58:41;;;;;;;2.77;2.40;;;;;;;20.14;61.17;99594.69;1712288;83;20922;-44
2022/07/08 02:01:08;;;;;;;4.95;2.62;;;;;;;20.12;61.36;99591.59;1712341;83;20985;-44
2022/07/08 02:03:35;;;;;;;3.33;2.77;;;;;;;20.09;61.42;99597.92;1712399;83;21032;-44
2022/07/08 02:06:03;;;;;;;4.17;3.35;;;;;;;20.07;61.10;99598.17;1712437;83;21224;-44
2022/07/08 02:08:30;;;;;;;3.75;3.20;;;;;;;20.04;61.18;99598.42;1712207;83;21035;-44
2022/07/08 02:13:43;;;;;;;4.55;3.22;;;;;;;19.90;61.72;99604.11;1712586;83;21578;-44
2022/07/08 02:16:10;;;;;;;4.65;3.05;;;;;;;19.83;61.90;99605.61;1712274;83;21110;-44
2022/07/08 02:18:37;;;;;;;4.20;2.90;;;;;;;19.81;61.88;99606.61;1712364;83;21231;-44
2022/07/08 02:21:05;;;;;;;4.25;3.00;;;;;;;19.82;62.00;99607.58;1712265;83;20922;-44
2022/07/08 02:23:32;;;;;;;4.87;3.12;;;;;;;19.82;62.06;99608.17;1712390;83;21032;-44
2022/07/08 02:25:59;;;;;;;4.03;3.08;;;;;;;19.82;62.22;99607.58;1712274;83;21048;-44
2022/07/08 02:28:26;;;;;;;3.55;2.65;;;;;;;19.83;62.51;99611.11;1712185;83;21088;-44
2022/07/08 02:30:53;;;;;;;4.55;2.85;;;;;;;19.82;62.58;99606.80;1712249;83;21223;-44
2022/07/08 02:33:20;;;;;;;5.75;2.60;;;;;;;19.83;62.51;99615.23;1712280;83;21057;-44
2022/07/08 02:35:47;;;;;;;4.00;2.40;;;;;;;19.85;62.14;99608.70;1712295;83;21032;-44
2022/07/08 02:38:14;;;;;;;4.45;2.83;;;;;;;19.87;61.82;99613.21;1712314;83;21538;-44
2022/07/08 02:40:41;;;;;;;4.03;2.42;;;;;;;19.91;61.68;99613.94;1712413;83;21101;-44
2022/07/08 02:43:10;;;;;;;3.85;2.17;;;;;;;19.95;61.96;99609.93;1712297;83;21240;-44
2022/07/08 02:45:38;;;;;;;2.90;2.12;;;;;;;20.01;61.86;99609.46;1712340;83;20946;-44
2022/07/08 02:48:06;;;;;;;3.50;2.52;;;;;;;20.07;61.36;99612.71;1712216;83;21065;-44
2022/07/08 02:50:33;;;;;;;4.25;2.40;;;;;;;20.10;61.09;99611.87;1712317;83;21081;-44
2022/07/08 02:53:00;;;;;;;4.20;2.62;;;;;;;20.14;60.81;99611.20;1712210;83;21084;-44
2022/07/08 02:55:27;;;;;;;4.40;2.80;;;;;;;20.19;60.77;99615.46;1712186;83;23116;-44
2022/07/08 02:57:54;;;;;;;4.55;3.25;;;;;;;20.22;60.47;99614.64;1712216;83;21047;-44
2022/07/08 03:00:22;;;;;;;3.52;2.65;;;;;;;20.22;60.29;99616.80;1712289;83;21538;-44
2022/07/08 03:02:49;;;;;;;3.55;2.70;;;;;;;20.26;60.33;99620.86;1712249;83;21094;-44
2022/07/08 03:05:17;;;;;;;4.22;3.37;;;;;;;20.29;60.43;99626.90;1712381;83;21550;-44
2022/07/08 03:07:44;;;;;;;5.97;2.70;;;;;;;20.29;60.36;99620.80;1712363;83;21194;-44
2022/07/08 03:10:11;;;;;;;3.00;2.70;;;;;;;20.30;60.36;99615.51;1712127;83;20938;-44
2022/07/08 03:12:39;;;;;;;6.17;3.00;;;;;;;20.33;60.36;99615.28;1712351;83;21013;-44
2022/07/08 03:15:08;;;;;;;4.28;3.10;;;;;;;20.34;60.64;99623.11;1712272;83;21061;-44
2022/07/08 03:17:35;;;;;;;5.28;2.83;;;;;;;20.36;60.54;99626.23;1712690;83;21053;-44
2022/07/08 03:20:04;;;;;;;4.80;2.60;;;;;;;20.39;60.88;99616.34;1712357;83;23214;-44
2022/07/08 03:22:33;;;;;;;3.53;2.77;;;;;;;20.41;61.19;99618.09;1712763;83;21068;-44
2022/07/08 03:24:59;;;;;;;4.20;2.42;;;;;;;20.45;61.20;99620.18;1712272;83;20981;-44
2022/07/08 03:27:27;;;;;;;3.17;2.15;;;;;;;20.47;61.08;99615.64;1712132;83;21029;-44
2022/07/08 03:29:53;;;;;;;3.67;2.40;;;;;;;20.51;60.55;99619.89;1712342;83;21032;-44
2022/07/08 03:32:22;;;;;;;4.37;2.77;;;;;;;20.55;60.81;99623.95;1712271;83;21083;-44
2022/07/08 03:34:50;;;;;;;4.30;3.00;;;;;;;20.52;60.46;99620.67;1712274;83;20973;-44
2022/07/08 03:37:19;;;;;;;4.92;3.22;;;;;;;20.44;60.74;99617.23;1712424;83;21077;-44
2022/07/08 03:39:46;;;;;;;4.15;3.27;;;;;;;20.37;60.96;99625.05;1712250;83;21032;-44
2022/07/08 03:42:13;;;;;;;4.10;2.72;;;;;;;20.29;61.25;99622.77;1704519;82;21095;-44
2022/07/08 03:44:40;;;;;;;3.45;2.67;;;;;;;20.25;61.75;99627.56;1695807;84;21877;-44
2022/07/08 03:47:08;;;;;;;4.45;2.30;;;;;;;20.28;61.90;99633.00;1717886;82;21009;-44
2022/07/08 03:49:35;;;;;;;6.15;2.72;;;;;;;20.36;61.75;99629.58;1718055;83;20973;-44
2022/07/08 03:52:03;;;;;;;4.10;2.25;;;;;;;20.46;61.57;99631.98;1717986;83;22157;-44
2022/07/08 03:54:31;;;;;;;3.87;2.22;;;;;;;20.52;61.24;99628.33;1728147;83;21105;-44
2022/07/08 03:56:58;;;;;;;3.33;2.00;;;;;;;20.60;60.74;99637.23;1727869;83;21140;-44
2022/07/08 03:59:26;;;;;;;3.72;2.35;;;;;;;20.67;60.58;99633.00;1728053;83;21043;-44
2022/07/08 04:01:53;;;;;;;4.83;2.30;;;;;;;20.73;60.13;99643.09;1728138;83;21499;-44
2022/07/08 04:04:20;;;;;;;2.52;2.10;;;;;;;20.80;59.92;99644.95;1728010;82;20965;-44
2022/07/08 04:06:47;;;;;;;4.53;2.55;;;;;;;20.86;59.85;99652.92;1728109;83;21014;-44
2022/07/08 04:09:14;;;;;;;3.37;2.50;;;;;;;20.91;59.72;99641.41;1728074;82;22044;-44
2022/07/08 04:11:41;;;;;;;4.90;2.37;;;;;;;20.95;59.39;99641.34;1727872;82;21024;-44
2022/07/08 04:14:09;;;;;;;3.75;2.58;;;;;;;20.98;59.43;99646.78;1727958;82;21558;-44
2022/07/08 04:16:36;;;;;;;3.47;2.62;;;;;;;21.02;59.37;99653.00;1727866;83;21029;-44
2022/07/08 04:19:04;;;;;;;3.50;2.50;;;;;;;21.05;59.41;99648.03;1727939;83;21009;-44
2022/07/08 04:21:31;;;;;;;3.70;2.37;;;;;;;21.07;59.58;99652.51;1727840;83;23122;-44
2022/07/08 04:23:59;;;;;;;3.98;2.20;;;;;;;21.11;59.69;99653.81;1727895;83;21000;-44
2022/07/08 04:26:31;;;;;;;4.12;2.20;;;;;;;21.16;59.60;99645.08;1727770;83;21486;-44
2022/07/08 04:28:55;;;;;;;3.75;2.37;;;;;;;21.21;59.76;99643.98;1727938;82;21579;-44
2022/07/08 04:31:22;;;;;;;3.90;2.33;;;;;;;21.29;59.78;99642.48;1727977;83;21002;-44
2022/07/08 04:33:50;;;;;;;4.75;2.35;;;;;;;21.32;59.94;99643.00;1728052;82;21081;-44
2022/07/08 04:36:17;;;;;;;4.15;2.30;;;;;;;21.34;60.06;99641.98;1727884;83;21006;-44
2022/07/08 04:38:44;;;;;;;3.05;2.40;;;;;;;21.34;59.90;99642.77;1735470;82;21028;-44
2022/07/08 04:41:11;;;;;;;2.67;2.20;;;;;;;21.35;59.71;99644.92;1751394;81;21080;-44
2022/07/08 04:43:38;;;;;;;3.50;2.50;;;;;;;21.36;58.98;99641.72;1751633;81;21017;-44
2022/07/08 04:46:06;;;;;;;3.95;2.72;;;;;;;21.35;58.16;99639.41;1751377;82;21209;-44
2022/07/08 04:48:34;;;;;;;3.45;2.42;;;;;;;21.26;58.40;99644.09;1751399;82;20981;-43
2022/07/08 04:51:01;;;;;;;3.12;2.30;;;;;;;21.20;58.39;99641.05;1751448;81;21044;-43
2022/07/08 04:53:28;;;;;;;3.20;2.60;;;;;;;21.14;58.26;99638.62;1751574;82;20996;-43
2022/07/08 04:55:55;;;;;;;5.25;2.70;;;;;;;21.13;58.67;99634.31;1751390;82;21032;-43
2022/07/08 04:58:22;;;;;;;3.47;2.60;;;;;;;21.12;58.87;99634.09;1751361;82;21353;-43
2022/07/08 05:00:50;;;;;;;4.12;2.72;;;;;;;21.12;58.52;99635.48;1751308;82;21037;-43
2022/07/08 05:03:18;;;;;;;3.58;2.40;;;;;;;21.13;58.83;99634.31;1751438;82;21020;-44
2022/07/08 05:05:44;;;;;;;6.47;2.55;;;;;;;21.20;59.06;99637.55;1751505;82;21463;-43
2022/07/08 05:08:11;;;;;;;4.58;2.70;;;;;;;21.25;58.65;99637.80;1751316;82;21507;-43
2022/07/08 05:10:39;;;;;;;3.62;2.47;;;;;;;21.36;58.54;99638.19;1751443;82;21315;-43
2022/07/08 05:13:07;;;;;;;3.70;2.47;;;;;;;21.46;58.15;99636.59;1751308;82;21020;-43
2022/07/08 05:15:34;;;;;;;3.50;2.45;;;;;;;21.55;58.30;99631.88;1751346;82;20929;-45
2022/07/08 05:18:02;;;;;;;2.83;2.17;;;;;;;21.64;57.63;99634.83;1751269;82;21076;-44
2022/07/08 05:20:30;;;;;;;2.05;1.75;;;;;;;21.73;57.19;99637.80;1751400;82;21079;-44
2022/07/08 05:22:57;;;;;;;3.17;1.85;;;;;;;21.80;56.02;99627.97;1751584;82;21152;-44
2022/07/08 05:25:24;;;;;;;3.30;1.90;;;;;;;21.86;56.23;99628.25;1751337;82;21057;-44
2022/07/08 05:27:51;;;;;;;3.35;1.80;;;;;;;21.94;56.16;99630.44;1751377;82;20976;-44
2022/07/08 05:30:19;;;;;;;3.58;1.90;;;;;;;22.03;55.73;99631.22;1751137;82;21706;-44
2022/07/08 05:32:46;;;;;;;3.17;1.75;;;;;;;22.09;55.74;99635.80;1751494;82;21053;-44
2022/07/08 05:35:13;;;;;;;2.92;1.35;;;;;;;22.18;55.46;99639.34;1751324;82;21251;-44
2022/07/08 05:37:41;;;;;;;1.77;1.47;;;;;;;22.25;54.75;99639.79;1751487;82;21626;-44
2022/07/08 05:40:10;;;;;;;2.35;1.57;;;;;;;22.31;54.73;99629.78;1751232;82;21041;-44
2022/07/08 05:42:38;;;;;;;2.35;1.60;;;;;;;22.38;54.56;99636.50;1751752;82;21117;-44
2022/07/08 05:45:06;;;;;;;2.65;1.45;;;;;;;22.45;54.55;99642.64;1751319;81;21014;-44
2022/07/08 05:47:34;;;;;;;1.45;1.22;;;;;;;22.52;54.27;99639.69;1751515;82;21164;-44
2022/07/08 05:50:01;;;;;;;3.92;1.27;;;;;;;22.60;53.75;99636.16;1751321;82;21032;-44
2022/07/08 05:54:14;;;;;;;3.15;1.60;;;;;;;22.79;52.34;99646.95;1800645;79;22484;-43
2022/07/08 05:56:41;;;;;;;2.87;1.40;;;;;;;22.75;51.82;99644.88;1753377;81;20932;-44
2022/07/08 05:59:08;;;;;;;3.33;1.60;;;;;;;22.78;52.34;99647.55;1786319;80;21188;-43
2022/07/08 06:01:36;;;;;;;3.80;1.55;;;;;;;22.83;51.90;99651.77;1782556;80;20976;-43
2022/07/08 06:04:04;;;;;;;2.80;1.55;;;;;;;22.87;51.40;99649.08;1788271;80;20981;-43
2022/07/08 06:06:31;;;;;;;4.53;1.72;;;;;;;22.87;50.38;99644.94;1788143;80;21013;-43
2022/07/08 06:08:59;;;;;;;2.80;1.70;;;;;;;22.80;50.63;99649.25;1788257;80;21025;-43
2022/07/08 06:11:26;;;;;;;2.80;1.50;;;;;;;22.72;51.12;99647.89;1788320;80;23200;-43
2022/07/08 06:13:53;;;;;;;4.15;1.70;;;;;;;22.64;51.26;99640.98;1788190;80;20917;-43
2022/07/08 06:16:22;;;;;;;5.37;1.50;;;;;;;22.53;51.77;99638.48;1770171;80;20992;-43
2022/07/08 06:18:50;;;;;;;2.25;1.47;;;;;;;22.44;51.78;99628.65;1785790;80;21044;-43
2022/07/08 06:21:16;;;;;;;3.62;1.52;;;;;;;22.39;51.61;99629.77;1777792;80;21005;-43
2022/07/08 06:23:44;;;;;;;3.08;1.40;;;;;;;22.33;51.92;99630.11;1771219;80;21201;-44
2022/07/08 06:26:12;;;;;;;2.85;1.50;;;;;;;22.28;52.19;99620.96;1772422;81;21575;-43
2022/07/08 06:28:39;;;;;;;2.25;1.37;;;;;;;22.25;51.69;99621.84;1775234;80;20997;-43
2022/07/08 06:31:06;;;;;;;2.80;1.30;;;;;;;22.20;51.74;99621.75;1788124;80;20986;-43
2022/07/08 06:33:33;;;;;;;3.75;1.40;;;;;;;22.18;51.86;99633.04;1788034;80;21028;-43
2022/07/08 06:36:00;;;;;;;4.42;1.42;;;;;;;22.16;52.31;99639.61;1788155;80;21237;-43
2022/07/08 06:38:27;;;;;;;2.15;1.20;;;;;;;22.17;52.64;99642.55;1788228;80;21037;-43
2022/07/08 06:40:54;;;;;;;2.47;1.30;;;;;;;22.18;52.92;99639.95;1788378;80;21073;-44
2022/07/08 06:43:22;;;;;;;5.28;1.50;;;;;;;22.20;52.83;99631.41;1788250;80;20981;-44
2022/07/08 06:45:50;;;;;;;3.60;1.50;;;;;;;22.21;53.50;99632.20;1788541;80;21080;-43
2022/07/08 06:48:17;;;;;;;2.98;1.30;;;;;;;22.21;54.08;99626.67;1788293;80;21201;-43
2022/07/08 06:50:45;;;;;;;4.42;1.92;;;;;;;22.23;55.36;99629.16;1788199;80;21028;-43
2022/07/08 06:53:13;;;;;;;2.77;1.45;;;;;;;22.26;54.45;99623.39;1782079;80;21014;-44
2022/07/08 06:55:40;;;;;;;5.20;1.35;;;;;;;22.27;54.65;99616.67;1774745;80;20986;-43
2022/07/08 06:58:07;;;;;;;3.10;1.20;;;;;;;22.30;55.00;99608.28;1774769;80;21112;-43
2022/07/08 07:00:34;;;;;;;1.72;1.32;;;;;;;22.34;54.65;99615.09;1774747;80;21226;-43
2022/07/08 07:03:01;;;;;;;2.90;1.65;;;;;;;22.38;54.40;99601.97;1774791;80;21018;-43
2022/07/08 07:05:29;;;;;;;3.50;1.52;;;;;;;22.40;54.10;99599.56;1774145;80;21493;-43
2022/07/08 07:07:56;;;;;;;2.72;1.70;;;;;;;22.43;53.60;99601.44;1774067;80;21603;-43
2022/07/08 07:10:23;;;;;;;1.80;1.52;;;;;;;22.43;53.88;99601.44;1774096;80;21002;-43
2022/07/08 07:12:50;;;;;;;2.33;1.40;;;;;;;22.44;53.46;99605.16;1774292;80;21918;-44
2022/07/08 07:15:17;;;;;;;2.05;1.50;;;;;;;22.45;53.37;99599.03;1774148;80;21844;-44
2022/07/08 07:17:45;;;;;;;2.12;1.50;;;;;;;22.49;53.74;99605.25;1774233;80;20978;-43
2022/07/08 07:20:13;;;;;;;2.08;1.50;;;;;;;22.55;53.48;99609.05;1774165;80;21026;-43
2022/07/08 07:22:40;;;;;;;4.78;2.10;;;;;;;22.55;53.14;99599.38;1774172;80;21046;-43
2022/07/08 07:25:08;;;;;;;2.98;1.50;;;;;;;22.58;53.32;99593.56;1774121;80;21311;-43
2022/07/08 07:27:35;;;;;;;2.80;1.50;;;;;;;22.59;53.50;99594.52;1774118;80;21081;-43
2022/07/08 07:30:03;;;;;;;3.17;1.67;;;;;;;22.60;53.25;99585.63;1773936;80;21081;-44
2022/07/08 07:32:30;;;;;;;4.50;1.82;;;;;;;22.59;53.92;99586.23;1774319;80;21069;-44
2022/07/08 07:34:57;;;;;;;1.72;1.45;;;;;;;22.63;54.17;99591.05;1774195;80;21011;-43
2022/07/08 07:37:24;;;;;;;2.47;1.50;;;;;;;22.68;53.71;99590.53;1774333;80;21197;-43
2022/07/08 07:39:51;;;;;;;1.90;1.60;;;;;;;22.73;53.51;99586.48;1774071;80;21542;-44
2022/07/08 07:42:18;;;;;;;3.33;1.30;;;;;;;22.78;53.00;99581.81;1774260;80;21025;-43
2022/07/08 07:44:45;;;;;;;1.82;1.40;;;;;;;22.81;51.67;99577.55;1774140;80;21056;-43
2022/07/08 07:47:12;;;;;;;2.58;1.30;;;;;;;22.84;51.56;99573.94;1774180;80;21536;-43
2022/07/08 07:49:40;;;;;;;4.45;1.50;;;;;;;22.87;51.70;99568.91;1774235;80;21230;-43
2022/07/08 07:52:07;;;;;;;1.90;1.00;;;;;;;22.94;50.93;99561.03;1773983;80;21025;-43
2022/07/08 07:54:35;;;;;;;1.75;1.42;;;;;;;22.99;50.42;99553.58;1772595;80;21213;-43
2022/07/08 07:57:04;;;;;;;1.95;1.37;;;;;;;23.03;51.21;99549.32;1773597;80;20946;-43
2022/07/08 07:59:31;;;;;;;1.92;1.55;;;;;;;23.12;51.03;99549.45;1773897;80;20989;-44
2022/07/08 08:01:59;;;;;;;1.77;1.20;;;;;;;23.14;50.91;99547.78;1773986;80;21522;-43
2022/07/08 08:04:25;;;;;;;1.65;1.10;;;;;;;23.14;50.44;99559.48;1768168;80;21626;-44
2022/07/08 08:06:52;;;;;;;5.28;1.30;;;;;;;23.15;50.05;99570.08;1771557;80;20939;-43
2022/07/08 08:09:19;;;;;;;1.50;1.10;;;;;;;23.19;49.25;99576.28;1773879;80;21076;-43
2022/07/08 08:11:46;;;;;;;2.08;0.98;;;;;;;23.23;48.54;99584.50;1757161;80;21030;-43
2022/07/08 08:14:14;;;;;;;3.35;1.20;;;;;;;23.25;48.11;99590.34;1732663;80;21237;-44
2022/07/08 08:16:41;;;;;;;1.80;1.30;;;;;;;23.28;48.25;99583.95;1732305;82;20970;-44
2022/07/08 08:19:10;;;;;;;2.70;1.00;;;;;;;23.38;48.37;99577.34;1732598;82;21583;-44
2022/07/08 08:21:37;;;;;;;3.70;0.95;;;;;;;23.50;48.52;99582.13;1749882;80;21361;-44
2022/07/08 08:24:05;;;;;;;0.95;0.82;;;;;;;23.63;48.11;99582.13;1773999;80;21002;-44
2022/07/08 08:26:32;;;;;;;1.35;0.88;;;;;;;23.77;47.52;99581.07;1774221;80;21227;-44
2022/07/08 08:28:59;;;;;;;1.45;1.12;;;;;;;23.89;46.85;99574.59;1774189;80;20986;-44
2022/07/08 08:31:26;;;;;;;2.37;0.90;;;;;;;24.01;46.43;99578.73;1774157;80;21009;-44
2022/07/08 08:33:54;;;;;;;2.12;1.10;;;;;;;24.12;45.83;99574.23;1774105;80;20969;-44
2022/07/08 08:36:23;;;;;;;2.20;1.00;;;;;;;24.24;46.08;99576.25;1774206;80;21006;-44
2022/07/08 08:38:50;;;;;;;4.40;1.00;;;;;;;24.39;45.15;99573.17;1774232;80;23161;-44
2022/07/08 08:41:17;;;;;;;1.32;0.80;;;;;;;24.50;44.77;99578.32;1774307;80;21416;-44
2022/07/08 08:43:44;;;;;;;1.55;1.05;;;;;;;24.56;44.48;99574.54;1774155;80;20949;-44
2022/07/08 08:46:11;;;;;;;2.58;0.80;;;;;;;24.65;44.68;99578.77;1752255;80;20898;-44
2022/07/08 08:48:39;;;;;;;2.98;1.00;;;;;;;24.72;45.26;99581.14;1774223;80;21085;-44
2022/07/08 08:51:08;;;;;;;1.82;1.00;;;;;;;24.80;44.64;99584.59;1773849;80;23085;-44
2022/07/08 08:53:44;;;;;;;2.67;1.25;;;;;;;24.90;44.65;99582.08;1776842;80;20996;-44
2022/07/08 08:56:14;;;;;;;2.08;1.00;;;;;;;25.02;44.91;99587.42;1782356;80;20996;-44
2022/07/08 08:58:46;;;;;;;3.05;1.05;;;;;;;25.13;44.54;99585.01;1782500;80;21080;-44
2022/07/08 09:01:16;;;;;;;3.17;1.20;;;;;;;25.23;44.59;99586.61;1782225;80;22119;-44
2022/07/08 09:03:43;;;;;;;5.67;1.20;;;;;;;25.30;44.10;99588.36;1782332;80;21208;-44
2022/07/08 09:06:11;;;;;;;4.10;1.60;;;;;;;25.29;44.17;99594.52;1782336;80;20981;-44
2022/07/08 09:08:38;;;;;;;4.05;1.32;;;;;;;25.30;44.33;99598.85;1782395;80;20964;-44
2022/07/08 09:11:06;;;;;;;2.55;1.00;;;;;;;25.30;43.74;99594.69;1782365;80;21041;-44
2022/07/08 09:13:33;;;;;;;0.93;0.82;;;;;;;25.29;43.58;99601.46;1782370;80;21040;-44
2022/07/08 09:16:01;;;;;;;2.90;0.88;;;;;;;25.31;42.91;99598.24;1782360;80;21145;-44
2022/07/08 09:18:32;;;;;;;1.20;0.90;;;;;;;25.30;43.43;99592.52;1782327;80;20925;-44
2022/07/08 09:20:59;;;;;;;1.55;0.75;;;;;;;25.30;43.76;99591.14;1782149;80;21479;-44
2022/07/08 09:23:32;;;;;;;2.15;1.00;;;;;;;25.31;43.16;99585.75;1782431;80;20930;-44
2022/07/08 09:26:04;;;;;;;3.50;0.98;;;;;;;25.35;43.67;99582.23;1782205;80;21018;-44
2022/07/08 09:28:43;;;;;;;1.90;1.10;;;;;;;25.40;43.89;99578.86;1782402;80;21217;-44
2022/07/08 09:31:12;;;;;;;2.02;0.95;;;;;;;25.47;43.43;99575.19;1782098;80;20990;-44
2022/07/08 09:33:42;;;;;;;1.52;0.82;;;;;;;25.57;44.39;99584.97;1779472;80;21033;-44
2022/07/08 09:36:10;;;;;;;0.67;0.50;;;;;;;25.67;42.52;99581.79;1745615;82;20946;-44
2022/07/08 09:38:40;;;;;;;;;;;;;;;25.80;42.21;99576.89;1763284;80;21498;-44
2022/07/08 09:41:20;;;;;;;2.15;0.93;;;;;;;25.95;41.31;99577.09;1766328;80;21162;-45
2022/07/08 09:43:50;;;;;;;1.22;0.85;;;;;;;25.96;41.71;99581.43;1768373;80;21433;-45
2022/07/08 09:46:20;;;;;;;1.35;0.72;;;;;;;26.01;40.71;99585.00;1742952;82;20973;-45
2022/07/08 09:48:48;;;;;;;;;;;;;;;25.99;39.70;99579.14;1767540;80;20929;-45
2022/07/08 09:51:16;;;;;;;1.32;0.78;;;;;;;26.03;40.14;99585.32;1751626;80;20179;-45
2022/07/08 09:53:43;;;;;;;1.82;0.75;;;;;;;25.94;40.30;99582.52;1781831;80;21229;-45
2022/07/08 09:56:10;;;;;;;1.30;0.93;;;;;;;25.94;40.39;99574.97;1782129;80;21012;-45
2022/07/08 09:58:38;;;;;;;0.68;0.57;;;;;;;26.03;40.45;99590.88;1759173;80;21048;-45
2022/07/08 10:01:06;;;;;;;1.27;0.50;;;;;;;26.06;39.90;99589.95;1782047;80;21004;-45
2022/07/08 10:03:35;;;;;;;1.32;0.70;;;;;;;26.08;40.01;99591.67;1755615;80;21021;-45
2022/07/08 10:06:03;;;;;;;1.92;0.90;;;;;;;26.15;38.99;99588.58;1778761;80;21527;-45
2022/07/08 10:08:31;;;;;;;2.15;0.70;;;;;;;26.24;39.42;99573.34;1774559;80;21522;-45
2022/07/08 10:10:59;;;;;;;1.15;0.65;;;;;;;26.36;39.09;99579.40;1751961;80;21058;-45
2022/07/08 10:13:26;;;;;;;1.82;0.98;;;;;;;26.50;38.89;99566.89;1752073;80;21041;-45
2022/07/08 10:15:57;;;;;;;0.78;0.50;;;;;;;26.70;39.13;99569.22;1748002;80;21032;-45
2022/07/08 10:18:40;;;;;;;2.22;0.70;;;;;;;26.86;37.65;99566.74;1745651;80;21202;-45
2022/07/08 10:21:07;;;;;;;1.25;0.60;;;;;;;26.97;37.67;99569.22;1745405;80;20950;-45
2022/07/08 10:23:46;;;;;;;1.25;0.60;;;;;;;27.03;36.73;99571.53;1745714;80;21024;-45
2022/07/08 10:26:16;;;;;;;0.77;0.50;;;;;;;27.12;34.83;99567.95;1748405;80;21272;-45
2022/07/08 10:28:43;;;;;;;0.42;0.42;;;;;;;27.18;35.02;99564.09;1754558;80;21081;-44
2022/07/08 10:31:22;;;;;;;3.05;0.85;;;;;;;27.33;35.28;99567.61;1745135;82;21122;-45
2022/07/08 10:33:50;;;;;;;0.50;0.50;;;;;;;27.49;34.93;99561.72;1780201;80;20922;-45
2022/07/08 10:36:21;;;;;;;0.85;0.70;;;;;;;27.57;34.53;99564.31;1781835;80;21048;-45
2022/07/08 10:38:48;;;;;;;2.40;0.70;;;;;;;27.69;34.19;99558.39;1781827;80;21076;-45
2022/07/08 10:41:22;;;;;;;1.90;0.62;;;;;;;27.84;33.06;99562.78;1779789;80;21001;-45
2022/07/08 10:43:54;;;;;;;1.47;0.62;;;;;;;28.05;33.14;99562.38;1779460;80;21281;-45
2022/07/08 10:46:21;;;;;;;1.87;0.72;;;;;;;28.33;31.56;99560.20;1782267;80;21010;-45
2022/07/08 10:48:52;;;;;;;1.20;0.82;;;;;;;28.46;30.72;99560.13;1781553;80;20973;-45
2022/07/08 10:51:29;;;;;;;1.00;0.60;;;;;;;28.54;31.55;99561.91;1778719;80;20961;-45
2022/07/08 10:54:05;;;;;;;4.05;1.00;;;;;;;28.77;31.43;99561.74;1767073;80;21542;-45
2022/07/08 10:56:54;;;;;;;2.17;0.82;;;;;;;29.09;31.61;99560.83;1766342;80;21234;-45
2022/07/08 10:59:33;;;;;;;1.10;0.70;;;;;;;29.46;30.66;99555.64;1738339;80;21032;-45
2022/07/08 11:02:14;;;;;;;1.77;0.70;;;;;;;29.67;29.75;99555.08;1751834;80;20914;-45
2022/07/08 11:04:45;;;;;;;1.25;0.60;;;;;;;29.78;29.26;99547.61;1774069;80;21069;-45
2022/07/08 11:07:23;;;;;;;;;;;;;;;29.68;30.13;99553.80;1776709;80;21016;-45
2022/07/08 11:09:56;;;;;;;;;;;;;;;29.56;29.74;99554.27;1745954;80;20240;-45
2022/07/08 11:12:39;;;;;;;2.47;0.90;;;;;;;29.29;29.35;99553.15;1766575;80;21579;-45
2022/07/08 11:15:13;;;;;;;2.40;0.80;;;;;;;29.06;30.92;99560.38;1773780;80;20966;-45
2022/07/08 11:17:42;;;;;;;3.42;1.67;;;;;;;29.09;31.17;99553.08;1771193;80;20980;-45
2022/07/08 11:20:13;;;;;;;5.83;1.52;;;;;;;29.25;30.62;99556.14;1773950;80;20957;-45
2022/07/08 11:22:42;;;;;;;2.52;0.93;;;;;;;29.37;30.15;99552.95;1770978;80;22767;-45
2022/07/08 11:25:12;;;;;;;1.15;0.50;;;;;;;29.44;30.95;99555.34;1773780;80;20930;-45
2022/07/08 11:27:40;;;;;;;2.05;1.10;;;;;;;29.57;31.32;99557.22;1773413;80;21013;-45
2022/07/08 11:30:11;;;;;;;1.90;1.05;;;;;;;29.73;30.88;99556.69;1773528;80;21006;-45
2022/07/08 11:32:37;;;;;;;1.52;0.78;;;;;;;29.93;31.37;99560.18;1773201;80;21678;-45
2022/07/08 11:35:07;;;;;;;0.98;0.50;;;;;;;30.25;30.47;99552.75;1758217;80;21109;-45
2022/07/08 11:37:42;;;;;;;1.67;0.90;;;;;;;30.52;28.99;99556.53;1770732;80;21009;-45
2022/07/08 11:40:12;;;;;;;1.30;0.70;;;;;;;30.78;29.12;99549.58;1774266;80;20986;-45
2022/07/08 11:42:40;;;;;;;1.25;0.70;;;;;;;30.97;28.32;99546.59;1774084;80;21049;-45